createdAt,value
2022-10-17T00:00:08.529Z,98428.81
2022-10-17T00:02:39.986Z,98430.97
2022-10-17T00:05:14.045Z,98432.03
2022-10-17T00:07:44.594Z,98432.03
2022-10-17T00:10:15.138Z,98439.22
2022-10-17T00:12:45.724Z,98435.84
2022-10-17T00:15:20.238Z,98431.63
2022-10-17T00:17:51.057Z,98434.50
2022-10-17T00:20:24.504Z,98442.53
2022-10-17T00:22:55.493Z,98440.84
2022-10-17T00:25:26.257Z,98439.16
2022-10-17T00:27:56.836Z,98441.91
2022-10-17T00:30:27.412Z,98446.34
2022-10-17T00:32:58.068Z,98440.34
2022-10-17T00:35:31.240Z,98445.63
2022-10-17T00:38:01.809Z,98439.56
2022-10-17T00:40:32.507Z,98435.25
2022-10-17T00:43:03.072Z,98438.84
2022-10-17T00:45:34.807Z,98429.47
2022-10-17T00:48:09.686Z,98429.69
2022-10-17T00:50:47.215Z,98430.63
2022-10-17T00:53:19.215Z,98420.13
2022-10-17T00:55:53.896Z,98444.16
2022-10-17T00:58:25.247Z,98439.22
2022-10-17T01:00:56.525Z,98435.00
2022-10-17T01:03:28.091Z,98442.28
2022-10-17T01:06:01.777Z,98432.34
2022-10-17T01:08:32.677Z,98450.41
2022-10-17T01:11:16.840Z,98446.22
2022-10-17T01:13:53.152Z,98446.50
2022-10-17T01:16:30.456Z,98444.09
2022-10-17T01:19:10.670Z,98446.94
2022-10-17T01:21:53.880Z,98445.47
2022-10-17T01:24:44.771Z,98445.78
2022-10-17T01:27:42.189Z,98448.66
2022-10-17T01:30:45.321Z,98447.06
2022-10-17T01:33:25.274Z,98455.19
2022-10-17T01:36:04.894Z,98452.75
2022-10-17T01:38:42.485Z,98452.13
2022-10-17T01:41:19.890Z,98428.41
2022-10-17T01:43:57.422Z,98442.72
2022-10-17T01:46:31.540Z,98441.88
2022-10-17T01:49:06.910Z,98444.66
2022-10-17T01:51:41.197Z,98456.22
2022-10-17T01:54:18.732Z,98452.88
2022-10-17T01:56:54.081Z,98448.84
2022-10-17T01:59:29.065Z,98453.16
2022-10-17T02:02:01.316Z,98460.25
2022-10-17T02:04:34.674Z,98458.56
2022-10-17T02:07:10.677Z,98467.41
2022-10-17T02:09:43.124Z,98462.34
2022-10-17T02:12:25.051Z,98471.19
2022-10-17T02:15:08.330Z,98468.03
2022-10-17T02:17:48.074Z,98474.06
2022-10-17T02:20:27.508Z,98477.66
2022-10-17T02:23:02.134Z,98472.47
2022-10-17T02:25:39.380Z,98480.47
2022-10-17T02:28:19.617Z,98484.91
2022-10-17T02:30:55.633Z,98475.41
2022-10-17T02:33:31.030Z,98489.44
2022-10-17T02:36:10.373Z,98489.53
2022-10-17T02:38:42.052Z,98493.97
2022-10-17T02:41:16.812Z,98498.50
2022-10-17T02:43:49.143Z,98498.59
2022-10-17T02:46:25.084Z,98493.75
2022-10-17T02:48:58.163Z,98502.38
2022-10-17T02:51:36.509Z,98505.97
2022-10-17T02:54:13.285Z,98501.75
2022-10-17T02:56:49.332Z,98506.25
2022-10-17T02:59:23.393Z,98508.06
2022-10-17T03:01:54.818Z,98495.00
2022-10-17T03:04:25.450Z,98511.75
2022-10-17T03:06:58.933Z,98511.84
2022-10-17T03:09:29.504Z,98514.69
2022-10-17T03:12:01.014Z,98516.59
2022-10-17T03:14:31.893Z,98508.00
2022-10-17T03:17:02.464Z,98506.75
2022-10-17T03:19:33.546Z,98514.56
2022-10-17T03:22:06.810Z,98512.09
2022-10-17T03:24:42.523Z,98518.31
2022-10-17T03:27:13.091Z,98509.88
2022-10-17T03:29:43.855Z,98515.03
2022-10-17T03:32:14.549Z,98523.06
2022-10-17T03:34:45.425Z,98511.75
2022-10-17T03:37:18.777Z,98513.66
2022-10-17T03:39:49.442Z,98515.44
2022-10-17T03:42:19.978Z,98520.78
2022-10-17T03:44:52.585Z,98527.97
2022-10-17T03:47:23.335Z,98522.78
2022-10-17T03:49:55.025Z,98521.19
2022-10-17T03:52:28.345Z,98529.19
2022-10-17T03:54:59.085Z,98533.59
2022-10-17T03:57:30.617Z,98539.91
2022-10-17T04:00:01.803Z,98549.41
2022-10-17T04:02:35.368Z,98548.59
2022-10-17T04:05:06.083Z,98547.91
2022-10-17T04:07:39.938Z,98548.59
2022-10-17T04:10:11.891Z,98548.59
2022-10-17T04:12:42.715Z,98538.13
2022-10-17T04:15:15.188Z,98535.69
2022-10-17T04:17:48.490Z,98537.38
2022-10-17T04:20:20.757Z,98540.97
2022-10-17T04:22:54.181Z,98544.63
2022-10-17T04:25:24.973Z,98543.03
2022-10-17T04:27:55.741Z,98549.25
2022-10-17T04:30:26.865Z,98542.50
2022-10-17T04:32:57.510Z,98549.44
2022-10-17T04:35:28.164Z,98550.41
2022-10-17T04:38:08.110Z,98549.75
2022-10-17T04:40:39.848Z,98563.84
2022-10-17T04:43:10.559Z,98556.97
2022-10-17T04:45:41.219Z,98545.25
2022-10-17T04:48:11.993Z,98563.19
2022-10-17T04:50:42.768Z,98559.69
2022-10-17T04:53:39.565Z,98553.69
2022-10-17T04:56:15.206Z,98569.97
2022-10-17T04:58:47.189Z,98571.66
2022-10-17T05:01:19.952Z,98572.41
2022-10-17T05:03:56.565Z,98569.78
2022-10-17T05:06:29.081Z,98569.66
2022-10-17T05:09:22.738Z,98574.00
2022-10-17T05:11:53.623Z,98581.81
2022-10-17T05:14:24.625Z,98567.88
2022-10-17T05:16:55.248Z,98573.63
2022-10-17T05:19:25.983Z,98581.34
2022-10-17T05:21:56.688Z,98580.19
2022-10-17T05:24:29.885Z,98582.53
2022-10-17T05:27:00.515Z,98582.16
2022-10-17T05:29:31.179Z,98588.72
2022-10-17T05:32:10.183Z,98594.91
2022-10-17T05:34:41.315Z,98594.13
2022-10-17T05:37:12.052Z,98593.97
2022-10-17T05:39:50.611Z,98578.41
2022-10-17T05:42:23.177Z,98591.44
2022-10-17T05:44:53.778Z,98577.53
2022-10-17T05:47:24.755Z,98594.78
2022-10-17T05:49:55.241Z,98600.19
2022-10-17T05:52:38.383Z,98596.66
2022-10-17T05:55:18.932Z,98600.84
2022-10-17T05:57:49.535Z,98595.25
2022-10-17T06:00:22.249Z,98603.59
2022-10-17T06:02:59.791Z,98604.91
2022-10-17T06:05:30.414Z,98596.31
2022-10-17T06:08:02.167Z,98597.72
2022-10-17T06:10:39.409Z,98606.41
2022-10-17T06:13:10.111Z,98602.97
2022-10-17T06:15:40.699Z,98603.03
2022-10-17T06:18:12.694Z,98613.38
2022-10-17T06:20:45.367Z,98606.06
2022-10-17T06:23:18.823Z,98610.06
2022-10-17T06:26:14.971Z,98603.53
2022-10-17T06:28:45.985Z,98610.06
2022-10-17T06:31:18.798Z,98613.19
2022-10-17T06:33:49.569Z,98610.50
2022-10-17T06:36:21.361Z,98612.09
2022-10-17T06:38:53.783Z,98620.78
2022-10-17T06:41:36.767Z,98613.38
2022-10-17T06:44:11.444Z,98612.59
2022-10-17T06:46:42.939Z,98618.75
2022-10-17T06:49:14.074Z,98621.38
2022-10-17T06:51:52.801Z,98610.53
2022-10-17T06:54:29.457Z,98611.16
2022-10-17T06:57:14.984Z,98612.09
2022-10-17T06:59:57.801Z,98593.22
2022-10-17T07:02:35.000Z,98608.09
2022-10-17T07:05:06.151Z,98607.81
2022-10-17T07:07:41.439Z,98604.09
2022-10-17T07:10:15.086Z,98607.38
2022-10-17T07:12:48.325Z,98612.63
2022-10-17T07:15:19.083Z,98608.88
2022-10-17T07:17:51.983Z,98604.16
2022-10-17T07:20:23.418Z,98597.59
2022-10-17T07:22:54.685Z,98608.97
2022-10-17T07:25:26.308Z,98611.38
2022-10-17T07:28:04.310Z,98610.00
2022-10-17T07:30:36.533Z,98604.53
2022-10-17T07:33:12.039Z,98606.66
2022-10-17T07:35:43.934Z,98614.53
2022-10-17T07:38:14.934Z,98616.13
2022-10-17T07:40:45.773Z,98609.78
2022-10-17T07:43:19.018Z,98611.31
2022-10-17T07:45:50.965Z,98610.19
2022-10-17T07:48:22.300Z,98621.50
2022-10-17T07:50:53.646Z,98621.97
2022-10-17T07:53:24.272Z,98619.59
2022-10-17T07:55:54.815Z,98624.53
2022-10-17T07:58:29.012Z,98618.09
2022-10-17T08:01:04.469Z,98618.00
2022-10-17T08:03:35.057Z,98607.56
2022-10-17T08:06:06.699Z,98614.13
2022-10-17T08:08:37.542Z,98609.81
2022-10-17T08:11:11.834Z,98616.69
2022-10-17T08:13:45.432Z,98611.72
2022-10-17T08:16:16.759Z,98608.06
2022-10-17T08:18:47.641Z,98605.59
2022-10-17T08:21:18.189Z,98606.09
2022-10-17T08:23:48.720Z,98612.50
2022-10-17T08:26:20.262Z,98617.22
2022-10-17T08:28:53.829Z,98618.25
2022-10-17T08:31:25.501Z,98613.72
2022-10-17T08:33:56.089Z,98607.19
2022-10-17T08:36:27.282Z,98607.47
2022-10-17T08:38:57.880Z,98613.72
2022-10-17T08:41:43.300Z,98605.47
2022-10-17T08:44:28.668Z,98605.25
2022-10-17T08:47:02.603Z,98606.56
2022-10-17T08:49:42.621Z,98610.13
2022-10-17T08:52:21.949Z,98606.56
2022-10-17T08:54:54.045Z,98603.88
2022-10-17T08:57:24.710Z,98600.09
2022-10-17T08:59:58.217Z,98599.59
2022-10-17T09:02:51.542Z,98612.41
2022-10-17T09:05:33.682Z,98605.16
2022-10-17T09:08:17.734Z,98614.06
2022-10-17T09:10:59.050Z,98604.97
2022-10-17T09:13:45.964Z,98599.41
2022-10-17T09:16:38.927Z,98600.63
2022-10-17T09:19:20.589Z,98606.66
2022-10-17T09:21:56.792Z,98601.63
2022-10-17T09:24:36.562Z,98610.72
2022-10-17T09:27:07.512Z,98602.84
2022-10-17T09:29:43.591Z,98594.09
2022-10-17T09:32:20.413Z,98597.44
2022-10-17T09:34:51.386Z,98588.72
2022-10-17T09:37:23.428Z,98587.88
2022-10-17T09:39:54.187Z,98583.50
2022-10-17T09:42:30.464Z,98585.19
2022-10-17T09:45:15.969Z,98592.06
2022-10-17T09:47:59.598Z,98587.50
2022-10-17T09:50:33.323Z,98587.50
2022-10-17T09:53:09.879Z,98592.72
2022-10-17T09:55:44.561Z,98591.91
2022-10-17T09:58:15.374Z,98585.66
2022-10-17T10:00:49.200Z,98589.66
2022-10-17T10:03:24.863Z,98579.75
2022-10-17T10:06:07.131Z,98580.06
2022-10-17T10:08:39.439Z,98576.16
2022-10-17T10:11:13.946Z,98581.16
2022-10-17T10:13:46.527Z,98584.34
2022-10-17T10:16:24.477Z,98579.25
2022-10-17T10:18:57.687Z,98571.47
2022-10-17T10:21:29.496Z,98573.63
2022-10-17T10:24:09.734Z,98572.88
2022-10-17T10:26:43.655Z,98571.81
2022-10-17T10:29:26.173Z,98572.38
2022-10-17T10:34:55.809Z,98566.91
2022-10-17T10:37:29.112Z,98562.56
2022-10-17T10:40:01.776Z,98561.50
2022-10-17T10:42:36.251Z,98565.66
2022-10-17T10:45:35.944Z,98541.47
2022-10-17T10:48:22.142Z,98554.63
2022-10-17T10:50:59.313Z,98554.38
2022-10-17T10:53:45.005Z,98549.19
2022-10-17T10:56:18.004Z,98551.00
2022-10-17T10:58:57.371Z,98547.84
2022-10-17T11:01:35.992Z,98539.22
2022-10-17T11:04:31.046Z,98533.97
2022-10-17T11:07:08.635Z,98532.19
2022-10-17T11:09:49.821Z,98529.94
2022-10-17T11:12:24.793Z,98528.72
2022-10-17T11:15:00.399Z,98528.16
2022-10-17T11:17:37.718Z,98531.72
2022-10-17T11:20:22.342Z,98534.25
2022-10-17T11:23:00.601Z,98531.59
2022-10-17T11:25:39.337Z,98527.66
2022-10-17T11:28:17.490Z,98515.59
2022-10-17T11:30:53.253Z,98521.88
2022-10-17T11:33:31.514Z,98521.03
2022-10-17T11:36:07.438Z,98515.38
2022-10-17T11:38:49.074Z,98516.41
2022-10-17T11:41:24.985Z,98506.41
2022-10-17T11:44:00.994Z,98504.94
2022-10-17T11:46:32.527Z,98500.19
2022-10-17T11:49:19.879Z,98504.34
2022-10-17T11:52:02.690Z,98497.03
2022-10-17T11:54:41.512Z,98499.13
2022-10-17T11:57:38.893Z,98490.34
2022-10-17T12:00:26.006Z,98488.03
2022-10-17T12:03:08.186Z,98490.97
2022-10-17T12:05:46.662Z,98493.47
2022-10-17T12:08:30.471Z,98490.16
2022-10-17T12:11:09.258Z,98484.31
2022-10-17T12:13:56.528Z,98486.84
2022-10-17T12:16:48.246Z,98491.03
2022-10-17T12:19:29.025Z,98490.63
2022-10-17T12:22:06.352Z,98497.28
2022-10-17T12:24:40.902Z,98498.66
2022-10-17T12:27:40.219Z,98492.34
2022-10-17T12:30:26.653Z,98502.66
2022-10-17T12:33:22.693Z,98495.88
2022-10-17T12:35:54.493Z,98498.47
2022-10-17T12:38:34.218Z,98497.53
2022-10-17T12:41:06.566Z,98494.13
2022-10-17T12:43:56.084Z,98494.22
2022-10-17T12:46:58.866Z,98499.13
2022-10-17T12:49:43.797Z,98494.25
2022-10-17T12:52:30.169Z,98499.78
2022-10-17T12:55:11.972Z,98488.50
2022-10-17T12:57:53.546Z,98489.47
2022-10-17T13:00:34.550Z,98495.13
2022-10-17T13:03:15.237Z,98494.25
2022-10-17T13:05:50.642Z,98492.97
2022-10-17T13:08:25.551Z,98489.34
2022-10-17T13:10:58.051Z,98497.00
2022-10-17T13:13:47.932Z,98500.06
2022-10-17T13:16:36.698Z,98505.00
2022-10-17T13:19:16.045Z,98496.44
2022-10-17T13:21:53.679Z,98505.91
2022-10-17T13:24:26.248Z,98502.78
2022-10-17T13:26:56.787Z,98496.75
2022-10-17T13:29:28.976Z,98505.22
2022-10-17T13:32:04.329Z,98502.69
2022-10-17T13:34:36.469Z,98502.88
2022-10-17T13:37:09.998Z,98504.94
2022-10-17T13:39:55.156Z,98506.16
2022-10-17T13:42:29.350Z,98509.22
2022-10-17T13:45:01.479Z,98515.19
2022-10-17T13:47:40.786Z,98514.72
2022-10-17T13:50:39.469Z,98517.59
2022-10-17T13:53:18.996Z,98505.91
2022-10-17T13:56:26.378Z,98513.31
2022-10-17T13:58:54.052Z,98510.16
2022-10-17T14:01:25.502Z,98510.34
2022-10-17T14:04:09.053Z,98510.72
2022-10-17T14:06:49.277Z,98510.09
2022-10-17T14:09:25.944Z,98515.66
2022-10-17T14:12:03.230Z,98507.28
2022-10-17T14:14:58.013Z,98507.94
2022-10-17T14:17:28.065Z,98504.16
2022-10-17T14:23:20.886Z,98498.53
2022-10-17T14:25:46.801Z,98512.47
2022-10-17T14:28:19.210Z,98508.28
2022-10-17T14:30:56.897Z,98515.72
2022-10-17T14:33:31.684Z,98514.41
2022-10-17T14:36:06.568Z,98517.47
2022-10-17T14:38:37.367Z,98516.16
2022-10-17T14:41:41.298Z,98504.09
2022-10-17T14:44:09.706Z,98512.72
2022-10-17T14:46:40.639Z,98510.38
2022-10-17T14:49:24.965Z,98507.22
2022-10-17T14:52:27.008Z,98516.00
2022-10-17T14:54:58.124Z,98516.38
2022-10-17T14:57:44.828Z,98518.78
2022-10-17T15:00:19.452Z,98520.16
2022-10-17T15:02:51.334Z,98520.88
2022-10-17T15:05:23.487Z,98516.88
2022-10-17T15:07:57.185Z,98525.31
2022-10-17T15:10:37.238Z,98531.22
2022-10-17T15:15:59.102Z,98534.81
2022-10-17T15:18:29.686Z,98529.31
2022-10-17T15:21:05.461Z,98533.22
2022-10-17T15:23:51.320Z,98541.50
2022-10-17T15:26:24.562Z,98547.03
2022-10-17T15:28:55.588Z,98543.38
2022-10-17T15:31:28.876Z,98555.88
2022-10-17T15:33:59.488Z,98553.03
2022-10-17T15:36:31.859Z,98551.22
2022-10-17T15:39:05.443Z,98563.50
2022-10-17T15:41:36.653Z,98568.72
2022-10-17T15:44:07.887Z,98572.09
2022-10-17T15:46:39.100Z,98563.41
2022-10-17T15:49:13.578Z,98559.94
2022-10-17T15:51:44.305Z,98565.16
2022-10-17T15:54:17.490Z,98569.50
2022-10-17T15:56:52.929Z,98578.59
2022-10-17T15:59:26.239Z,98582.31
2022-10-17T16:01:56.777Z,98594.06
2022-10-17T16:04:27.881Z,98595.06
2022-10-17T16:06:58.506Z,98593.41
2022-10-17T16:09:31.885Z,98598.06
2022-10-17T16:12:03.369Z,98605.91
2022-10-17T16:14:34.791Z,98609.44
2022-10-17T16:17:05.405Z,98619.16
2022-10-17T16:19:36.012Z,98616.47
2022-10-17T16:22:06.981Z,98612.09
2022-10-17T16:24:40.220Z,98619.94
2022-10-17T16:27:12.381Z,98619.75
2022-10-17T16:29:43.027Z,98616.69
2022-10-17T16:32:14.025Z,98625.06
2022-10-17T16:34:44.768Z,98629.72
2022-10-17T16:37:15.325Z,98623.34
2022-10-17T16:39:52.712Z,98638.22
2022-10-17T16:42:23.675Z,98639.03
2022-10-17T16:44:54.770Z,98641.66
2022-10-17T16:47:25.438Z,98644.28
2022-10-17T16:49:56.175Z,98650.59
2022-10-17T16:52:26.959Z,98648.19
2022-10-17T16:55:00.183Z,98648.00
2022-10-17T16:57:30.815Z,98659.16
2022-10-17T17:00:01.508Z,98659.78
2022-10-17T17:02:32.426Z,98654.34
2022-10-17T17:05:03.329Z,98665.81
2022-10-17T17:07:37.047Z,98658.69
2022-10-17T17:10:11.483Z,98658.47
2022-10-17T17:12:43.060Z,98663.44
2022-10-17T17:15:14.331Z,98664.22
2022-10-17T17:17:50.492Z,98665.97
2022-10-17T17:20:23.140Z,98661.84
2022-10-17T17:22:54.629Z,98670.88
2022-10-17T17:25:28.397Z,98676.78
2022-10-17T17:28:02.084Z,98676.69
2022-10-17T17:30:33.389Z,98674.94
2022-10-17T17:33:04.181Z,98670.19
2022-10-17T17:35:34.935Z,98673.63
2022-10-17T17:38:07.771Z,98673.38
2022-10-17T17:40:50.655Z,98674.25
2022-10-17T17:43:22.384Z,98672.69
2022-10-17T17:45:53.180Z,98672.25
2022-10-17T17:48:24.108Z,98677.09
2022-10-17T17:50:54.981Z,98682.88
2022-10-17T17:53:25.899Z,98682.50
2022-10-17T17:56:07.505Z,98679.66
2022-10-17T17:58:38.873Z,98682.81
2022-10-17T18:01:15.081Z,98679.66
2022-10-17T18:03:45.846Z,98679.34
2022-10-17T18:06:17.001Z,98671.84
2022-10-17T18:08:48.347Z,98677.16
2022-10-17T18:11:22.246Z,98681.59
2022-10-17T18:13:57.123Z,98673.53
2022-10-17T18:16:28.790Z,98677.88
2022-10-17T18:19:04.124Z,98683.16
2022-10-17T18:21:38.461Z,98661.22
2022-10-17T18:24:10.079Z,98688.19
2022-10-17T18:26:44.257Z,98679.69
2022-10-17T18:29:14.965Z,98681.56
2022-10-17T18:31:45.566Z,98678.88
2022-10-17T18:34:16.320Z,98684.38
2022-10-17T18:36:47.012Z,98674.53
2022-10-17T18:39:17.615Z,98672.81
2022-10-17T18:41:50.965Z,98681.16
2022-10-17T18:44:21.629Z,98675.75
2022-10-17T18:46:52.318Z,98680.09
2022-10-17T18:49:25.268Z,98682.03
2022-10-17T18:51:55.941Z,98682.22
2022-10-17T18:54:26.523Z,98681.63
2022-10-17T18:56:59.758Z,98683.66
2022-10-17T18:59:30.421Z,98679.56
2022-10-17T19:02:01.267Z,98683.38
2022-10-17T19:04:32.033Z,98676.31
2022-10-17T19:07:02.658Z,98683.09
2022-10-17T19:09:33.309Z,98685.22
2022-10-17T19:12:06.631Z,98693.38
2022-10-17T19:14:38.890Z,98680.69
2022-10-17T19:17:09.588Z,98689.50
2022-10-17T19:19:40.532Z,98690.88
2022-10-17T19:22:12.156Z,98695.44
2022-10-17T19:24:42.834Z,98695.88
2022-10-17T19:27:15.986Z,98692.59
2022-10-17T19:29:46.592Z,98691.03
2022-10-17T19:32:20.643Z,98687.72
2022-10-17T19:34:53.764Z,98694.06
2022-10-17T19:37:24.313Z,98695.16
2022-10-17T19:39:54.948Z,98695.97
2022-10-17T19:42:28.505Z,98695.69
2022-10-17T19:44:59.851Z,98693.50
2022-10-17T19:47:33.777Z,98689.50
2022-10-17T19:50:05.019Z,98691.84
2022-10-17T19:52:35.732Z,98704.06
2022-10-17T19:55:07.183Z,98707.38
2022-10-17T19:57:40.422Z,98697.56
2022-10-17T20:00:12.450Z,98693.25
2022-10-17T20:02:43.009Z,98695.06
2022-10-17T20:05:19.335Z,98703.28
2022-10-17T20:07:50.834Z,98700.41
2022-10-17T20:10:21.546Z,98707.03
2022-10-17T20:12:54.815Z,98703.06
2022-10-17T20:15:25.594Z,98700.19
2022-10-17T20:17:56.283Z,98699.31
2022-10-17T20:20:27.023Z,98702.72
2022-10-17T20:22:57.673Z,98698.97
2022-10-17T20:25:28.343Z,98684.97
2022-10-17T20:28:01.912Z,98700.66
2022-10-17T20:30:33.001Z,98700.44
2022-10-17T20:33:03.565Z,98701.41
2022-10-17T20:35:34.145Z,98700.66
2022-10-17T20:38:04.808Z,98691.00
2022-10-17T20:40:35.927Z,98693.66
2022-10-17T20:43:11.140Z,98679.31
2022-10-17T20:45:51.487Z,98683.28
2022-10-17T20:48:23.026Z,98686.81
2022-10-17T20:50:54.560Z,98686.91
2022-10-17T20:53:36.554Z,98681.03
2022-10-17T20:56:10.365Z,98683.78
2022-10-17T20:58:43.565Z,98690.28
2022-10-17T21:01:14.334Z,98692.19
2022-10-17T21:03:46.666Z,98695.22
2022-10-17T21:06:19.080Z,98691.97
2022-10-17T21:08:50.423Z,98694.00
2022-10-17T21:11:23.102Z,98689.88
2022-10-17T21:14:01.170Z,98688.31
2022-10-17T21:16:32.948Z,98670.69
2022-10-17T21:19:03.631Z,98685.19
2022-10-17T21:21:36.994Z,98686.28
2022-10-17T21:24:12.650Z,98687.34
2022-10-17T21:26:45.048Z,98679.88
2022-10-17T21:29:18.229Z,98685.03
2022-10-17T21:31:48.841Z,98686.88
2022-10-17T21:34:21.827Z,98688.78
2022-10-17T21:36:52.605Z,98692.50
2022-10-17T21:39:24.337Z,98687.41
2022-10-17T21:41:55.661Z,98678.13
2022-10-17T21:44:30.304Z,98681.59
2022-10-17T21:47:00.906Z,98687.03
2022-10-17T21:49:32.145Z,98682.78
2022-10-17T21:52:06.848Z,98683.88
2022-10-17T21:54:37.446Z,98673.53
2022-10-17T21:57:08.174Z,98680.13
2022-10-17T21:59:41.470Z,98673.97
2022-10-17T22:02:12.011Z,98687.47
2022-10-17T22:04:42.615Z,98684.94
2022-10-17T22:07:13.273Z,98695.75
2022-10-17T22:09:43.866Z,98684.75
2022-10-17T22:12:14.406Z,98686.69
2022-10-17T22:14:47.753Z,98679.19
2022-10-17T22:17:18.410Z,98684.72
2022-10-17T22:19:50.340Z,98671.22
2022-10-17T22:22:20.899Z,98677.44
2022-10-17T22:24:51.529Z,98677.44
2022-10-17T22:27:22.344Z,98680.09
2022-10-17T22:29:55.522Z,98670.19
2022-10-17T22:32:26.111Z,98676.94
2022-10-17T22:34:56.690Z,98676.22
2022-10-17T22:37:27.518Z,98677.41
2022-10-17T22:39:58.156Z,98673.41
2022-10-17T22:42:31.769Z,98683.16
2022-10-17T22:45:05.474Z,98684.34
2022-10-17T22:47:36.058Z,98679.38
2022-10-17T22:50:07.045Z,98678.53
2022-10-17T22:52:37.676Z,98676.81
2022-10-17T22:55:10.150Z,98673.66
2022-10-17T22:57:40.876Z,98676.53
2022-10-17T23:00:17.331Z,98675.59
2022-10-17T23:02:48.205Z,98673.25
2022-10-17T23:05:19.300Z,98674.72
2022-10-17T23:07:49.929Z,98671.06
2022-10-17T23:10:21.174Z,98669.94
2022-10-17T23:12:52.211Z,98666.63
2022-10-17T23:15:25.645Z,98662.09
2022-10-17T23:17:56.459Z,98659.19
2022-10-17T23:20:27.155Z,98665.00
2022-10-17T23:22:57.736Z,98663.81
2022-10-17T23:25:28.879Z,98659.09
2022-10-17T23:27:59.450Z,98660.25
2022-10-17T23:30:34.659Z,98660.88
2022-10-17T23:33:05.479Z,98661.38
2022-10-17T23:35:36.940Z,98655.94
2022-10-17T23:38:07.724Z,98654.97
2022-10-17T23:40:38.379Z,98651.03
2022-10-17T23:43:08.956Z,98650.09
2022-10-17T23:45:42.119Z,98650.91
2022-10-17T23:48:12.650Z,98647.78
2022-10-17T23:50:43.232Z,98652.09
2022-10-17T23:53:14.116Z,98646.59
2022-10-17T23:55:44.676Z,98647.25
2022-10-17T23:58:15.320Z,98643.47
